Sunday, July 22, 2018, 12:43 AM EDT
Back to Local

KDDH, Bennington Morse State Airport

Location: Bennington, VT, United States Lat: 42.883
Local Time: 12:43 AM EDT ( 4:43 GMT) Lon: -73.25
Time Zone: US/Eastern Elev: 826 ft

Show me the last for .
Show Decoded

2018-07-21 23:54 METAR KDDH 220354Z AUTO VRB05KT 10SM CLR 18/13 A3005 RMK AO2 SLP172 T01830128 =
2018-07-21 22:54 METAR KDDH 220254Z AUTO VRB03KT 10SM CLR 19/13 A3007 RMK AO2 SLP179 T01890128
                 50000 =
2018-07-21 21:54 METAR KDDH 220154Z AUTO 08005KT 10SM CLR 21/13 A3008 RMK AO2 SLP182 T02060128 =
2018-07-21 20:54 METAR KDDH 220054Z AUTO VRB05KT 10SM FEW041 21/13 A3008 RMK AO2 SLP181 T02110133
                 =
2018-07-21 19:54 METAR KDDH 212354Z AUTO 12008KT 10SM FEW044 23/13 A3007 RMK AO2 SLP179 T02280128
                 10272 20228 53004 =
2018-07-21 18:54 METAR KDDH 212254Z AUTO 14006KT 10SM CLR 24/13 A3006 RMK AO2 SLP176 T02390128 =
2018-07-21 17:54 METAR KDDH 212154Z AUTO 12006KT 10SM CLR 26/13 A3005 RMK AO2 SLP172 T02560128 =
2018-07-21 16:54 METAR KDDH 212054Z AUTO 10007KT 10SM CLR 26/12 A3006 RMK AO2 SLP176 T02610117
                 56009 =
2018-07-21 15:54 METAR KDDH 211954Z AUTO 13008KT 10SM CLR 27/12 A3007 RMK AO2 SLP177 T02670122 =
2018-07-21 14:54 METAR KDDH 211854Z AUTO 15009G16KT 10SM CLR 27/13 A3008 RMK AO2 SLP180 T02670128
                 =
2018-07-21 13:54 METAR KDDH 211754Z AUTO 11008KT 070V130 10SM CLR 27/14 A3009 RMK AO2 SLP184
                 T02670139 10267 20189 58016 =
2018-07-21 12:54 METAR KDDH 211654Z AUTO 14009KT 10SM CLR 26/13 A3012 RMK AO2 SLP194 T02560133 =
2018-07-21 11:54 METAR KDDH 211554Z AUTO 18006KT 10SM CLR 25/14 A3013 RMK AO2 SLP198 T02500139 =
2018-07-21 10:54 METAR KDDH 211454Z AUTO VRB04KT 10SM CLR 23/15 A3014 RMK AO2 SLP201 T02330150
                 55003 =
2018-07-21 09:54 METAR KDDH 211354Z AUTO 10006KT 10SM CLR 23/14 A3013 RMK AO2 SLP200 T02280139 =
2018-07-21 08:54 METAR KDDH 211254Z AUTO 07003KT 10SM CLR 22/14 A3014 RMK AO2 SLP203 T02170139 =
2018-07-21 07:54 METAR KDDH 211154Z AUTO 00000KT 10SM CLR 19/14 A3015 RMK AO2 SLP204 T01890139
                 10189 20122 51003 =
2018-07-21 06:54 METAR KDDH 211054Z AUTO 35003KT 10SM CLR 15/13 A3014 RMK AO2 SLP202 T01500133 =
2018-07-21 05:54 METAR KDDH 210954Z AUTO 00000KT 6SM BR CLR 13/12 A3015 RMK AO2 SLP205 T01280117
                 =
2018-07-21 04:54 METAR KDDH 210854Z AUTO 00000KT 10SM CLR 14/12 A3014 RMK AO2 SLP201 T01390122
                 51005 =
2018-07-21 03:54 METAR KDDH 210754Z AUTO 00000KT 10SM CLR 15/13 A3013 RMK AO2 SLP199 T01500128 =
2018-07-21 02:54 METAR KDDH 210654Z AUTO 00000KT 10SM CLR 14/13 A3013 RMK AO2 SLP198 T01440128 =
2018-07-21 01:54 METAR KDDH 210554Z AUTO 13004KT 10SM CLR 17/13 A3012 RMK AO2 SLP194 T01670128
                 10239 20167 58001 =
2018-07-21 00:54 METAR KDDH 210454Z AUTO 15003KT 10SM CLR 18/13 A3013 RMK AO2 SLP196 T01780128
                 402940100 =

Support USWX by starting your Amazon purchase here.